createdAt,value
2022-10-07T00:00:03.149Z,63.59
2022-10-07T00:00:38.143Z,63.87
2022-10-07T00:01:31.346Z,63.77
2022-10-07T00:02:06.713Z,63.14
2022-10-07T00:02:40.847Z,62.65
2022-10-07T00:03:14.554Z,62.13
2022-10-07T00:03:47.503Z,61.66
2022-10-07T00:04:20.355Z,61.39
2022-10-07T00:04:53.131Z,61.31
2022-10-07T00:05:26.163Z,61.09
2022-10-07T00:06:00.109Z,60.91
2022-10-07T00:06:32.953Z,60.83
2022-10-07T00:07:05.949Z,60.91
2022-10-07T00:07:39.069Z,60.87
2022-10-07T00:08:12.348Z,60.90
2022-10-07T00:08:46.772Z,60.86
2022-10-07T00:09:19.778Z,60.52
2022-10-07T00:09:52.758Z,60.01
2022-10-07T00:10:25.854Z,59.54
2022-10-07T00:11:03.258Z,59.02
2022-10-07T00:11:36.221Z,58.49
2022-10-07T00:12:09.296Z,58.31
2022-10-07T00:12:42.684Z,58.65
2022-10-07T00:13:15.627Z,59.01
2022-10-07T00:13:49.860Z,59.35
2022-10-07T00:14:22.762Z,59.81
2022-10-07T00:14:55.650Z,60.36
2022-10-07T00:15:28.487Z,60.81
2022-10-07T00:16:07.278Z,61.21
2022-10-07T00:16:41.206Z,61.48
2022-10-07T00:17:14.360Z,62.34
2022-10-07T00:17:47.328Z,62.79
2022-10-07T00:18:20.499Z,63.36
2022-10-07T00:18:56.841Z,63.57
2022-10-07T00:19:29.886Z,63.38
2022-10-07T00:20:02.866Z,62.96
2022-10-07T00:20:39.483Z,62.50
2022-10-07T00:21:13.667Z,62.07
2022-10-07T00:21:47.477Z,61.97
2022-10-07T00:22:20.446Z,61.78
2022-10-07T00:22:53.738Z,61.71
2022-10-07T00:23:26.647Z,61.30
2022-10-07T00:24:00.143Z,60.80
2022-10-07T00:24:33.163Z,60.55
2022-10-07T00:25:06.302Z,60.42
2022-10-07T00:25:39.842Z,60.37
2022-10-07T00:26:14.942Z,60.31
2022-10-07T00:26:48.005Z,59.87
2022-10-07T00:27:21.073Z,59.47
2022-10-07T00:27:54.018Z,59.03
2022-10-07T00:28:27.077Z,58.44
2022-10-07T00:29:00.928Z,58.38
2022-10-07T00:29:33.801Z,58.78
2022-10-07T00:30:07.064Z,59.29
2022-10-07T00:30:39.943Z,59.94
2022-10-07T00:31:15.005Z,60.48
2022-10-07T00:31:47.999Z,61.01
2022-10-07T00:32:20.886Z,61.63
2022-10-07T00:32:54.056Z,62.35
2022-10-07T00:33:27.685Z,63.06
2022-10-07T00:34:00.587Z,63.74
2022-10-07T00:34:33.443Z,63.96
2022-10-07T00:35:06.546Z,63.78
2022-10-07T00:35:39.357Z,63.46
2022-10-07T00:36:16.616Z,62.73
2022-10-07T00:36:52.255Z,62.25
2022-10-07T00:37:25.174Z,61.51
2022-10-07T00:37:58.393Z,60.88
2022-10-07T00:38:32.079Z,60.32
2022-10-07T00:39:06.984Z,59.73
2022-10-07T00:39:39.846Z,58.86
2022-10-07T00:40:13.497Z,58.22
2022-10-07T00:40:46.394Z,57.97
2022-10-07T00:41:20.784Z,58.32
2022-10-07T00:41:53.721Z,58.72
2022-10-07T00:42:26.865Z,59.44
2022-10-07T00:42:59.777Z,59.92
2022-10-07T00:43:33.007Z,60.59
2022-10-07T00:44:24.813Z,61.42
2022-10-07T00:44:57.685Z,61.86
2022-10-07T00:45:31.739Z,63.01
2022-10-07T00:46:37.527Z,63.65
2022-10-07T00:47:30.048Z,65.35
2022-10-07T00:48:03.454Z,63.87
2022-10-07T00:48:37.254Z,62.50
2022-10-07T00:49:12.093Z,61.68
2022-10-07T00:50:04.326Z,60.94
2022-10-07T00:50:37.747Z,60.71
2022-10-07T00:51:11.459Z,59.87
2022-10-07T00:51:44.610Z,59.41
2022-10-07T00:52:20.680Z,59.15
2022-10-07T00:52:56.873Z,58.85
2022-10-07T00:53:31.809Z,58.84
2022-10-07T00:54:06.785Z,59.02
2022-10-07T00:54:40.407Z,59.67
2022-10-07T00:55:17.229Z,60.24
2022-10-07T00:55:50.200Z,60.66
2022-10-07T00:56:24.310Z,61.32
2022-10-07T00:56:59.518Z,61.85
2022-10-07T00:57:33.292Z,62.24
2022-10-07T00:58:09.925Z,62.52
2022-10-07T00:58:43.641Z,63.28
2022-10-07T00:59:17.735Z,63.25
2022-10-07T00:59:51.158Z,62.64
2022-10-07T01:00:24.375Z,62.06
2022-10-07T01:00:57.801Z,61.54
2022-10-07T01:01:31.692Z,61.22
2022-10-07T01:02:04.839Z,60.71
2022-10-07T01:02:37.956Z,60.00
2022-10-07T01:03:11.009Z,59.44
2022-10-07T01:03:43.994Z,58.96
2022-10-07T01:04:17.610Z,58.86
2022-10-07T01:04:51.573Z,58.85
2022-10-07T01:05:24.549Z,59.22
2022-10-07T01:05:57.528Z,59.57
2022-10-07T01:06:30.595Z,59.98
2022-10-07T01:07:03.696Z,60.48
2022-10-07T01:07:36.998Z,60.99
2022-10-07T01:08:09.847Z,61.55
2022-10-07T01:08:43.642Z,62.04
2022-10-07T01:09:16.822Z,62.70
2022-10-07T01:09:51.664Z,63.49
2022-10-07T01:10:26.730Z,63.84
2022-10-07T01:11:02.407Z,63.90
2022-10-07T01:11:35.370Z,63.34
2022-10-07T01:12:13.142Z,62.81
2022-10-07T01:12:58.596Z,62.44
2022-10-07T01:13:34.398Z,61.98
2022-10-07T01:14:13.875Z,61.20
2022-10-07T01:15:01.849Z,60.53
2022-10-07T01:15:46.669Z,60.17
2022-10-07T01:16:21.964Z,59.78
2022-10-07T01:16:57.869Z,58.56
2022-10-07T01:17:34.736Z,58.08
2022-10-07T01:18:07.658Z,58.16
2022-10-07T01:18:46.051Z,58.25
2022-10-07T01:19:37.249Z,58.68
2022-10-07T01:20:18.656Z,59.11
2022-10-07T01:20:58.164Z,60.08
2022-10-07T01:21:34.189Z,60.82
2022-10-07T01:22:11.715Z,61.54
2022-10-07T01:23:05.958Z,62.05
2022-10-07T01:23:57.889Z,62.31
2022-10-07T01:24:40.062Z,63.41
2022-10-07T01:25:23.471Z,63.05
2022-10-07T01:26:17.376Z,62.45
2022-10-07T01:26:50.360Z,61.76
2022-10-07T01:27:24.521Z,60.58
2022-10-07T01:28:13.003Z,59.97
2022-10-07T01:28:56.305Z,59.54
2022-10-07T01:29:33.862Z,58.50
2022-10-07T01:30:07.970Z,58.64
2022-10-07T01:30:42.711Z,58.80
2022-10-07T01:31:17.835Z,59.21
2022-10-07T01:31:54.896Z,59.68
2022-10-07T01:32:32.693Z,60.14
2022-10-07T01:33:07.117Z,60.63
2022-10-07T01:33:41.076Z,61.41
2022-10-07T01:34:14.766Z,61.97
2022-10-07T01:34:49.153Z,62.76
2022-10-07T01:35:27.167Z,63.54
2022-10-07T01:36:04.016Z,64.10
2022-10-07T01:36:37.204Z,63.97
2022-10-07T01:37:12.156Z,63.20
2022-10-07T01:37:47.386Z,62.43
2022-10-07T01:38:22.703Z,61.56
2022-10-07T01:39:02.745Z,60.59
2022-10-07T01:39:42.417Z,60.10
2022-10-07T01:40:22.018Z,59.28
2022-10-07T01:40:57.822Z,58.53
2022-10-07T01:41:31.767Z,58.47
2022-10-07T01:42:05.070Z,58.62
2022-10-07T01:42:38.863Z,58.92
2022-10-07T01:43:14.701Z,59.36
2022-10-07T01:43:48.515Z,59.78
2022-10-07T01:44:21.763Z,60.37
2022-10-07T01:44:57.078Z,60.98
2022-10-07T01:45:31.212Z,61.47
2022-10-07T01:46:08.819Z,62.20
2022-10-07T01:46:43.418Z,62.59
2022-10-07T01:47:17.251Z,63.22
2022-10-07T01:47:50.720Z,63.46
2022-10-07T01:48:23.739Z,63.34
2022-10-07T01:48:56.786Z,63.10
2022-10-07T01:49:29.879Z,62.68
2022-10-07T01:50:02.757Z,62.09
2022-10-07T01:50:36.662Z,61.74
2022-10-07T01:51:09.625Z,61.32
2022-10-07T01:51:42.539Z,60.62
2022-10-07T01:52:34.108Z,60.17
2022-10-07T01:53:13.242Z,59.93
2022-10-07T01:54:07.243Z,59.11
2022-10-07T01:55:00.511Z,58.39
2022-10-07T01:56:09.498Z,58.11
2022-10-07T01:56:47.574Z,58.26
2022-10-07T01:57:32.656Z,59.62
2022-10-07T01:58:30.238Z,60.00
2022-10-07T01:59:29.634Z,60.58
2022-10-07T02:00:05.987Z,61.24
2022-10-07T02:00:42.537Z,62.30
2022-10-07T02:01:34.489Z,62.85
2022-10-07T02:02:23.112Z,63.33
2022-10-07T02:02:58.979Z,63.49
2022-10-07T02:03:34.805Z,63.01
2022-10-07T02:04:25.840Z,62.22
2022-10-07T02:05:15.344Z,61.92
2022-10-07T02:05:58.971Z,61.31
2022-10-07T02:06:40.807Z,60.76
2022-10-07T02:07:13.681Z,60.10
2022-10-07T02:08:22.217Z,59.43
2022-10-07T02:08:55.987Z,59.35
2022-10-07T02:09:40.503Z,58.83
2022-10-07T02:10:19.135Z,58.74
2022-10-07T02:11:04.087Z,59.13
2022-10-07T02:11:40.929Z,59.51
2022-10-07T02:12:34.178Z,60.21
2022-10-07T02:13:14.142Z,60.63
2022-10-07T02:13:47.050Z,61.52
2022-10-07T02:14:26.860Z,62.40
2022-10-07T02:15:08.605Z,62.76
2022-10-07T02:15:44.452Z,63.43
2022-10-07T02:16:24.233Z,63.39
2022-10-07T02:17:02.261Z,63.19
2022-10-07T02:17:37.522Z,62.72
2022-10-07T02:18:14.052Z,62.13
2022-10-07T02:18:49.175Z,61.72
2022-10-07T02:19:28.183Z,61.06
2022-10-07T02:20:01.971Z,60.75
2022-10-07T02:20:37.197Z,60.14
2022-10-07T02:21:11.542Z,59.43
2022-10-07T02:21:45.814Z,58.91
2022-10-07T02:22:19.020Z,58.46
2022-10-07T02:22:53.419Z,58.24
2022-10-07T02:23:27.921Z,58.42
2022-10-07T02:24:01.112Z,58.77
2022-10-07T02:24:35.810Z,59.06
2022-10-07T02:25:10.193Z,59.48
2022-10-07T02:25:45.672Z,59.84
2022-10-07T02:26:21.253Z,60.09
2022-10-07T02:26:56.021Z,60.42
2022-10-07T02:27:31.836Z,61.10
2022-10-07T02:28:06.567Z,61.33
2022-10-07T02:28:42.180Z,61.50
2022-10-07T02:29:16.417Z,62.05
2022-10-07T02:29:51.611Z,62.63
2022-10-07T02:30:24.851Z,63.74
2022-10-07T02:31:01.771Z,64.18
2022-10-07T02:31:35.704Z,64.12
2022-10-07T02:32:11.470Z,63.63
2022-10-07T02:32:50.977Z,63.03
2022-10-07T02:33:27.534Z,62.46
2022-10-07T02:34:02.197Z,61.56
2022-10-07T02:34:36.569Z,60.88
2022-10-07T02:35:16.621Z,60.20
2022-10-07T02:35:58.381Z,60.04
2022-10-07T02:36:44.879Z,59.43
2022-10-07T02:37:25.133Z,58.43
2022-10-07T02:38:00.509Z,58.11
2022-10-07T02:38:33.554Z,58.44
2022-10-07T02:39:07.051Z,58.84
2022-10-07T02:39:39.949Z,59.28
2022-10-07T02:40:12.882Z,60.06
2022-10-07T02:40:51.550Z,60.61
2022-10-07T02:41:46.275Z,61.16
2022-10-07T02:42:28.735Z,61.62
2022-10-07T02:43:08.281Z,62.89
2022-10-07T02:43:46.766Z,63.81
2022-10-07T02:44:26.288Z,64.00
2022-10-07T02:44:59.962Z,63.70
2022-10-07T02:45:38.446Z,63.03
2022-10-07T02:46:15.796Z,62.61
2022-10-07T02:46:53.971Z,61.92
2022-10-07T02:47:34.199Z,61.39
2022-10-07T02:48:18.481Z,60.91
2022-10-07T02:48:59.838Z,60.55
2022-10-07T02:49:38.383Z,60.19
2022-10-07T02:50:13.374Z,59.47
2022-10-07T02:50:49.282Z,58.87
2022-10-07T02:51:23.705Z,58.25
2022-10-07T02:51:59.834Z,58.14
2022-10-07T02:52:33.493Z,58.43
2022-10-07T02:53:07.078Z,58.82
2022-10-07T02:53:40.796Z,59.28
2022-10-07T02:54:14.594Z,59.88
2022-10-07T02:54:49.626Z,60.35
2022-10-07T02:55:24.463Z,60.75
2022-10-07T02:55:58.901Z,61.16
2022-10-07T02:56:33.644Z,61.74
2022-10-07T02:57:07.523Z,62.05
2022-10-07T02:57:42.960Z,62.57
2022-10-07T02:58:17.350Z,63.25
2022-10-07T02:58:51.244Z,63.47
2022-10-07T02:59:24.517Z,63.28
2022-10-07T02:59:58.606Z,63.25
2022-10-07T03:00:32.593Z,63.12
2022-10-07T03:01:06.239Z,63.02
2022-10-07T03:01:41.744Z,62.75
2022-10-07T03:02:21.505Z,62.32
2022-10-07T03:02:59.196Z,61.95
2022-10-07T03:03:32.118Z,61.32
2022-10-07T03:04:06.105Z,60.48
2022-10-07T03:04:39.281Z,60.10
2022-10-07T03:05:13.580Z,59.75
2022-10-07T03:05:48.600Z,59.57
2022-10-07T03:06:23.323Z,59.19
2022-10-07T03:06:58.951Z,58.77
2022-10-07T03:07:33.172Z,58.63
2022-10-07T03:08:07.645Z,59.00
2022-10-07T03:08:42.555Z,59.51
2022-10-07T03:09:15.973Z,59.98
2022-10-07T03:09:49.130Z,60.51
2022-10-07T03:10:22.307Z,60.84
2022-10-07T03:10:55.165Z,61.19
2022-10-07T03:11:28.940Z,61.71
2022-10-07T03:12:01.820Z,62.16
2022-10-07T03:12:34.721Z,62.47
2022-10-07T03:13:07.584Z,63.14
2022-10-07T03:13:40.564Z,63.29
2022-10-07T03:14:13.495Z,62.99
2022-10-07T03:14:49.151Z,62.55
2022-10-07T03:15:22.520Z,62.13
2022-10-07T03:15:55.486Z,61.28
2022-10-07T03:16:28.563Z,60.76
2022-10-07T03:17:02.492Z,60.13
2022-10-07T03:17:35.465Z,59.73
2022-10-07T03:18:26.825Z,59.38
2022-10-07T03:19:00.173Z,58.96
2022-10-07T03:19:33.071Z,58.91
2022-10-07T03:20:07.171Z,59.06
2022-10-07T03:20:40.265Z,59.48
2022-10-07T03:21:13.349Z,60.13
2022-10-07T03:21:46.431Z,60.73
2022-10-07T03:22:19.442Z,61.28
2022-10-07T03:22:52.503Z,62.04
2022-10-07T03:23:26.301Z,62.40
2022-10-07T03:24:05.035Z,63.16
2022-10-07T03:24:38.557Z,63.86
2022-10-07T03:25:12.540Z,64.12
2022-10-07T03:25:49.123Z,64.26
2022-10-07T03:26:22.564Z,64.44
2022-10-07T03:26:56.847Z,64.24
2022-10-07T03:27:29.796Z,64.01
2022-10-07T03:28:02.761Z,63.51
2022-10-07T03:28:37.731Z,62.98
2022-10-07T03:29:11.399Z,62.56
2022-10-07T03:29:44.432Z,61.99
2022-10-07T03:30:20.161Z,61.28
2022-10-07T03:31:04.224Z,61.07
2022-10-07T03:31:37.270Z,60.65
2022-10-07T03:32:10.526Z,59.90
2022-10-07T03:32:43.461Z,59.44
2022-10-07T03:33:17.200Z,58.89
2022-10-07T03:33:50.407Z,58.66
2022-10-07T03:34:23.527Z,58.61
2022-10-07T03:34:56.619Z,58.99
2022-10-07T03:35:30.574Z,59.39
2022-10-07T03:36:08.379Z,59.54
2022-10-07T03:36:41.607Z,59.76
2022-10-07T03:37:14.637Z,60.53
2022-10-07T03:37:47.600Z,60.96
2022-10-07T03:38:22.819Z,61.60
2022-10-07T03:38:55.861Z,62.28
2022-10-07T03:39:28.785Z,62.74
2022-10-07T03:40:01.761Z,63.22
2022-10-07T03:40:35.364Z,63.61
2022-10-07T03:41:08.348Z,63.58
2022-10-07T03:41:42.072Z,63.45
2022-10-07T03:42:14.915Z,63.02
2022-10-07T03:42:48.297Z,62.58
2022-10-07T03:43:21.196Z,62.35
2022-10-07T03:43:57.581Z,61.96
2022-10-07T03:44:30.524Z,61.53
2022-10-07T03:45:03.564Z,61.02
2022-10-07T03:45:42.919Z,60.63
2022-10-07T03:46:17.034Z,60.67
2022-10-07T03:46:51.567Z,59.94
2022-10-07T03:47:25.404Z,59.58
2022-10-07T03:47:59.110Z,58.93
2022-10-07T03:48:32.055Z,58.52
2022-10-07T03:49:05.080Z,58.46
2022-10-07T03:49:37.999Z,58.75
2022-10-07T03:50:10.954Z,59.14
2022-10-07T03:50:53.343Z,59.56
2022-10-07T03:51:26.244Z,59.94
2022-10-07T03:52:00.834Z,60.90
2022-10-07T03:52:33.762Z,61.53
2022-10-07T03:53:06.880Z,62.20
2022-10-07T03:53:40.032Z,62.98
2022-10-07T03:54:12.981Z,63.81
2022-10-07T03:54:45.951Z,64.20
2022-10-07T03:55:19.238Z,64.14
2022-10-07T03:55:52.266Z,63.77
2022-10-07T03:56:25.615Z,63.34
2022-10-07T03:56:58.623Z,62.80
2022-10-07T03:57:50.167Z,62.40
2022-10-07T03:58:23.459Z,62.25
2022-10-07T03:58:56.266Z,61.35
2022-10-07T03:59:29.176Z,60.95
2022-10-07T04:00:02.123Z,60.71
2022-10-07T04:00:35.219Z,60.23
2022-10-07T04:01:09.535Z,59.90
2022-10-07T04:01:42.644Z,59.38
2022-10-07T04:02:15.681Z,58.87
2022-10-07T04:02:49.442Z,58.44
2022-10-07T04:03:22.994Z,58.52
2022-10-07T04:03:56.114Z,58.71
2022-10-07T04:04:29.165Z,59.11
2022-10-07T04:05:02.309Z,59.67
2022-10-07T04:05:36.107Z,60.33
2022-10-07T04:06:09.143Z,61.07
2022-10-07T04:06:43.066Z,61.79
2022-10-07T04:07:15.963Z,62.37
2022-10-07T04:07:50.012Z,63.09
2022-10-07T04:08:23.958Z,63.61
2022-10-07T04:08:57.028Z,63.80
2022-10-07T04:09:30.744Z,63.55
2022-10-07T04:10:03.864Z,63.34
2022-10-07T04:10:36.731Z,63.00
2022-10-07T04:11:09.681Z,62.76
2022-10-07T04:11:43.628Z,62.07
2022-10-07T04:12:16.790Z,61.47
2022-10-07T04:12:49.870Z,60.81
2022-10-07T04:13:23.489Z,60.28
2022-10-07T04:13:56.388Z,59.80
2022-10-07T04:14:29.328Z,59.46
2022-10-07T04:15:02.291Z,59.10
2022-10-07T04:15:36.578Z,58.91
2022-10-07T04:16:10.504Z,59.06
2022-10-07T04:16:43.573Z,59.37
2022-10-07T04:17:19.930Z,59.95
2022-10-07T04:17:54.794Z,60.62
2022-10-07T04:18:27.736Z,61.36
2022-10-07T04:19:00.786Z,61.87
2022-10-07T04:19:33.923Z,62.48
2022-10-07T04:20:07.506Z,63.23
2022-10-07T04:20:40.776Z,63.85
2022-10-07T04:21:13.780Z,64.21
2022-10-07T04:21:46.689Z,64.09
2022-10-07T04:22:19.682Z,63.81
2022-10-07T04:22:52.758Z,63.26
2022-10-07T04:23:25.657Z,62.58
2022-10-07T04:23:58.581Z,62.10
2022-10-07T04:24:31.619Z,61.69
2022-10-07T04:25:24.393Z,61.13
2022-10-07T04:25:57.390Z,61.49
2022-10-07T04:26:30.389Z,60.20
2022-10-07T04:27:06.756Z,59.77
2022-10-07T04:27:51.702Z,59.63
2022-10-07T04:28:28.903Z,59.22
2022-10-07T04:29:01.793Z,59.12
2022-10-07T04:29:39.013Z,59.51
2022-10-07T04:30:12.748Z,60.03
2022-10-07T04:30:49.312Z,60.61
2022-10-07T04:31:22.305Z,61.32
2022-10-07T04:31:57.324Z,62.06
2022-10-07T04:32:34.249Z,62.58
2022-10-07T04:33:08.401Z,63.52
2022-10-07T04:33:41.615Z,63.91
2022-10-07T04:34:14.598Z,64.02
2022-10-07T04:34:47.461Z,63.74
2022-10-07T04:35:21.533Z,62.86
2022-10-07T04:35:54.877Z,62.32
2022-10-07T04:36:28.099Z,61.97
2022-10-07T04:37:01.463Z,61.52
2022-10-07T04:37:34.574Z,61.07
2022-10-07T04:38:11.673Z,60.65
2022-10-07T04:38:50.583Z,60.35
2022-10-07T04:39:37.430Z,59.96
2022-10-07T04:40:17.442Z,59.63
2022-10-07T04:40:50.630Z,58.79
2022-10-07T04:41:23.641Z,58.77
2022-10-07T04:41:56.586Z,59.03
2022-10-07T04:42:48.489Z,59.56
2022-10-07T04:43:27.604Z,59.72
2022-10-07T04:44:00.687Z,60.96
2022-10-07T04:44:33.689Z,62.02
2022-10-07T04:45:07.151Z,62.74
2022-10-07T04:45:40.925Z,63.50
2022-10-07T04:46:16.799Z,63.80
2022-10-07T04:46:49.945Z,63.95
2022-10-07T04:47:23.602Z,63.52
2022-10-07T04:47:56.467Z,63.16
2022-10-07T04:48:29.482Z,62.69
2022-10-07T04:49:02.779Z,62.00
2022-10-07T04:49:35.910Z,61.54
2022-10-07T04:50:09.292Z,60.98
2022-10-07T04:50:43.479Z,60.64
2022-10-07T04:51:16.607Z,60.29
2022-10-07T04:51:49.608Z,59.85
2022-10-07T04:52:22.640Z,59.46
2022-10-07T04:52:55.570Z,59.17
2022-10-07T04:53:28.505Z,58.82
2022-10-07T04:54:01.521Z,59.06
2022-10-07T04:54:34.621Z,59.30
2022-10-07T04:55:07.649Z,59.88
2022-10-07T04:55:45.005Z,60.46
2022-10-07T04:56:17.925Z,61.03
2022-10-07T04:56:50.874Z,61.81
2022-10-07T04:57:23.864Z,62.44
2022-10-07T04:57:56.829Z,63.24
2022-10-07T04:58:30.422Z,63.81
2022-10-07T04:59:03.613Z,63.99
2022-10-07T04:59:42.453Z,63.87
2022-10-07T05:00:15.922Z,63.58
2022-10-07T05:00:50.070Z,63.07
2022-10-07T05:01:23.345Z,62.58
2022-10-07T05:01:56.459Z,62.04
2022-10-07T05:02:29.516Z,61.70
2022-10-07T05:03:03.574Z,61.26
2022-10-07T05:03:37.375Z,60.82
2022-10-07T05:04:10.835Z,60.36
2022-10-07T05:04:45.325Z,60.04
2022-10-07T05:05:18.428Z,59.84
2022-10-07T05:05:52.961Z,59.49
2022-10-07T05:06:26.048Z,59.11
2022-10-07T05:06:59.714Z,58.73
2022-10-07T05:07:32.809Z,58.62
2022-10-07T05:08:07.621Z,58.93
2022-10-07T05:08:42.441Z,59.44
2022-10-07T05:09:15.408Z,59.98
2022-10-07T05:09:48.457Z,60.78
2022-10-07T05:10:21.897Z,61.58
2022-10-07T05:10:55.576Z,62.39
2022-10-07T05:11:28.701Z,63.26
2022-10-07T05:12:01.666Z,64.11
2022-10-07T05:12:34.777Z,64.48
2022-10-07T05:13:09.726Z,64.56
2022-10-07T05:13:42.982Z,64.41
2022-10-07T05:14:21.628Z,64.00
2022-10-07T05:14:54.852Z,63.61
2022-10-07T05:15:27.786Z,62.99
2022-10-07T05:16:01.854Z,62.37
2022-10-07T05:16:34.858Z,61.96
2022-10-07T05:17:07.977Z,61.36
2022-10-07T05:17:41.325Z,61.05
2022-10-07T05:18:14.388Z,60.66
2022-10-07T05:18:47.443Z,60.44
2022-10-07T05:19:20.405Z,60.26
2022-10-07T05:19:53.483Z,60.06
2022-10-07T05:20:26.946Z,59.98
2022-10-07T05:21:04.769Z,59.94
2022-10-07T05:21:37.823Z,59.87
2022-10-07T05:22:10.653Z,59.78
2022-10-07T05:22:43.589Z,59.77
2022-10-07T05:23:17.459Z,59.78
2022-10-07T05:23:50.525Z,59.74
2022-10-07T05:24:23.514Z,59.72
2022-10-07T05:24:56.451Z,59.77
2022-10-07T05:25:29.671Z,59.73
2022-10-07T05:26:05.208Z,59.74
2022-10-07T05:26:38.245Z,59.80
2022-10-07T05:27:11.241Z,59.67
2022-10-07T05:27:44.606Z,59.55
2022-10-07T05:28:19.041Z,59.52
2022-10-07T05:28:52.116Z,59.32
2022-10-07T05:29:25.223Z,59.33
2022-10-07T05:29:58.199Z,59.67
2022-10-07T05:30:31.122Z,60.14
2022-10-07T05:31:06.063Z,60.73
2022-10-07T05:31:39.156Z,61.26
2022-10-07T05:32:12.205Z,62.04
2022-10-07T05:32:45.339Z,62.77
2022-10-07T05:33:18.552Z,63.51
2022-10-07T05:33:51.558Z,63.99
2022-10-07T05:34:24.489Z,64.22
2022-10-07T05:34:57.539Z,64.27
2022-10-07T05:35:31.664Z,63.97
2022-10-07T05:36:05.726Z,63.70
2022-10-07T05:36:39.273Z,63.33
2022-10-07T05:37:12.433Z,62.94
2022-10-07T05:37:50.124Z,62.69
2022-10-07T05:38:24.486Z,62.48
2022-10-07T05:38:58.288Z,62.17
2022-10-07T05:39:31.276Z,62.02
2022-10-07T05:40:04.472Z,61.83
2022-10-07T05:40:37.525Z,61.63
2022-10-07T05:41:11.451Z,61.44
2022-10-07T05:41:46.082Z,61.37
2022-10-07T05:42:19.206Z,61.33
2022-10-07T05:42:52.907Z,61.28
2022-10-07T05:43:30.073Z,61.36
2022-10-07T05:44:03.446Z,61.33
2022-10-07T05:44:38.010Z,61.41
2022-10-07T05:45:11.020Z,61.32
2022-10-07T05:45:43.906Z,61.39
2022-10-07T05:46:18.047Z,61.43
2022-10-07T05:46:51.119Z,61.35
2022-10-07T05:47:24.419Z,61.27
2022-10-07T05:47:58.576Z,61.27
2022-10-07T05:48:36.663Z,61.15
2022-10-07T05:49:12.455Z,61.12
2022-10-07T05:49:45.479Z,61.06
2022-10-07T05:50:18.543Z,61.00
2022-10-07T05:50:51.497Z,60.99
2022-10-07T05:51:25.424Z,60.95
2022-10-07T05:51:58.479Z,60.98
2022-10-07T05:52:31.785Z,61.04
2022-10-07T05:53:05.903Z,61.17
2022-10-07T05:53:41.632Z,61.12
2022-10-07T05:54:14.573Z,61.00
2022-10-07T05:54:47.616Z,60.82
2022-10-07T05:55:20.683Z,60.66
2022-10-07T05:55:53.788Z,60.65
2022-10-07T05:56:26.830Z,60.49
2022-10-07T05:57:00.503Z,60.21
2022-10-07T05:57:33.559Z,60.03
2022-10-07T05:58:06.537Z,59.93
2022-10-07T05:58:39.525Z,59.81
2022-10-07T05:59:13.078Z,59.74
2022-10-07T05:59:46.258Z,59.66
2022-10-07T06:00:19.293Z,59.70
2022-10-07T06:00:58.054Z,59.70
2022-10-07T06:01:32.918Z,60.26
2022-10-07T06:02:05.795Z,60.21
2022-10-07T06:02:39.377Z,59.68
2022-10-07T06:03:12.542Z,59.68
2022-10-07T06:03:49.483Z,59.56
2022-10-07T06:04:22.394Z,59.43
2022-10-07T06:04:55.351Z,59.18
2022-10-07T06:05:31.896Z,59.22
2022-10-07T06:06:04.822Z,59.41
2022-10-07T06:06:38.887Z,59.86
2022-10-07T06:07:12.251Z,60.43
2022-10-07T06:07:46.797Z,61.10
2022-10-07T06:08:21.125Z,61.69
2022-10-07T06:08:54.445Z,62.31
2022-10-07T06:09:46.018Z,63.04
2022-10-07T06:10:37.646Z,63.50
2022-10-07T06:11:30.940Z,64.06
2022-10-07T06:12:23.031Z,64.09
2022-10-07T06:13:08.543Z,63.59
2022-10-07T06:13:41.568Z,63.02
2022-10-07T06:14:15.124Z,62.54
2022-10-07T06:14:48.358Z,62.30
2022-10-07T06:15:21.350Z,61.76
2022-10-07T06:15:54.413Z,61.36
2022-10-07T06:16:27.575Z,60.95
2022-10-07T06:17:00.980Z,60.52
2022-10-07T06:17:34.309Z,60.23
2022-10-07T06:18:07.598Z,60.03
2022-10-07T06:18:41.089Z,60.03
2022-10-07T06:19:22.937Z,59.66
2022-10-07T06:19:56.295Z,59.85
2022-10-07T06:20:29.286Z,59.44
2022-10-07T06:21:02.352Z,58.93
2022-10-07T06:21:35.418Z,58.59
2022-10-07T06:22:08.442Z,58.72
2022-10-07T06:22:41.672Z,58.93
2022-10-07T06:23:15.355Z,59.41
2022-10-07T06:23:52.384Z,60.09
2022-10-07T06:24:25.667Z,60.65
2022-10-07T06:25:02.402Z,61.71
2022-10-07T06:25:35.909Z,62.37
2022-10-07T06:26:10.618Z,63.18
2022-10-07T06:26:43.611Z,64.04
2022-10-07T06:27:16.729Z,64.50
2022-10-07T06:27:53.806Z,64.51
2022-10-07T06:28:32.663Z,64.31
2022-10-07T06:29:05.664Z,63.54
2022-10-07T06:29:39.270Z,62.89
2022-10-07T06:30:13.594Z,62.41
2022-10-07T06:30:46.584Z,62.10
2022-10-07T06:31:25.513Z,61.63
2022-10-07T06:31:58.677Z,61.59
2022-10-07T06:32:32.989Z,61.16
2022-10-07T06:33:06.010Z,61.12
2022-10-07T06:33:39.290Z,60.78
2022-10-07T06:34:12.249Z,60.78
2022-10-07T06:34:45.478Z,60.65
2022-10-07T06:35:18.691Z,60.64
2022-10-07T06:35:55.686Z,60.56
2022-10-07T06:36:28.915Z,60.57
2022-10-07T06:37:02.123Z,60.44
2022-10-07T06:37:35.341Z,60.29
2022-10-07T06:38:08.274Z,59.92
2022-10-07T06:38:48.655Z,59.84
2022-10-07T06:39:21.874Z,59.74
2022-10-07T06:39:59.342Z,59.52
2022-10-07T06:40:32.714Z,59.66
2022-10-07T06:41:06.117Z,59.39
2022-10-07T06:41:39.080Z,59.24
2022-10-07T06:42:12.265Z,59.42
2022-10-07T06:42:45.373Z,59.80
2022-10-07T06:43:18.570Z,60.12
2022-10-07T06:43:54.933Z,60.76
2022-10-07T06:44:28.946Z,61.46
2022-10-07T06:45:02.218Z,62.24
2022-10-07T06:45:35.146Z,63.02
2022-10-07T06:46:10.497Z,63.94
2022-10-07T06:46:43.534Z,64.32
2022-10-07T06:47:16.479Z,64.41
2022-10-07T06:47:49.943Z,64.03
2022-10-07T06:48:23.301Z,63.80
2022-10-07T06:48:56.394Z,63.41
2022-10-07T06:49:30.929Z,63.23
2022-10-07T06:50:04.118Z,63.08
2022-10-07T06:50:37.079Z,63.02
2022-10-07T06:51:13.193Z,62.79
2022-10-07T06:51:47.215Z,62.71
2022-10-07T06:52:20.202Z,62.08
2022-10-07T06:52:53.233Z,61.57
2022-10-07T06:53:26.770Z,61.46
2022-10-07T06:53:59.734Z,61.13
2022-10-07T06:54:32.724Z,61.11
2022-10-07T06:55:06.077Z,61.14
2022-10-07T06:55:38.968Z,61.28
2022-10-07T06:56:12.903Z,61.18
2022-10-07T06:56:45.833Z,61.18
2022-10-07T06:57:44.226Z,61.04
2022-10-07T06:58:12.536Z,61.01
2022-10-07T06:58:45.542Z,60.86
2022-10-07T06:59:18.534Z,60.98
2022-10-07T06:59:52.049Z,60.97
2022-10-07T07:00:25.053Z,60.90
2022-10-07T07:00:59.912Z,60.55
2022-10-07T07:01:33.829Z,60.39
2022-10-07T07:02:07.142Z,60.24
2022-10-07T07:02:40.120Z,60.05
2022-10-07T07:03:13.053Z,59.95
2022-10-07T07:03:46.167Z,59.99
2022-10-07T07:04:19.181Z,59.93
2022-10-07T07:04:57.268Z,60.00
2022-10-07T07:05:44.424Z,59.90
2022-10-07T07:06:19.058Z,60.17
2022-10-07T07:06:52.284Z,60.18
2022-10-07T07:07:25.337Z,60.03
2022-10-07T07:07:59.129Z,60.04
2022-10-07T07:08:32.553Z,59.98
2022-10-07T07:09:05.584Z,60.00
2022-10-07T07:09:38.613Z,59.86
2022-10-07T07:10:11.641Z,59.90
2022-10-07T07:10:45.559Z,60.05
2022-10-07T07:11:37.246Z,60.26
2022-10-07T07:12:10.133Z,60.62
2022-10-07T07:12:43.390Z,60.89
2022-10-07T07:13:16.777Z,60.96
2022-10-07T07:13:49.800Z,61.00
2022-10-07T07:14:23.395Z,61.26
2022-10-07T07:14:56.462Z,61.37
2022-10-07T07:15:30.229Z,61.49
2022-10-07T07:16:03.362Z,61.51
2022-10-07T07:16:36.468Z,61.63
2022-10-07T07:17:09.731Z,61.45
2022-10-07T07:17:43.172Z,61.17
2022-10-07T07:18:17.305Z,61.21
2022-10-07T07:18:50.939Z,61.16
2022-10-07T07:19:23.886Z,61.00
2022-10-07T07:19:57.400Z,60.79
2022-10-07T07:20:35.303Z,60.64
2022-10-07T07:21:08.186Z,60.66
2022-10-07T07:21:41.275Z,60.44
2022-10-07T07:22:14.204Z,60.46
2022-10-07T07:22:47.303Z,60.34
2022-10-07T07:23:20.315Z,60.08
2022-10-07T07:23:53.205Z,60.01
2022-10-07T07:24:26.337Z,59.77
2022-10-07T07:24:59.370Z,59.56
2022-10-07T07:25:32.989Z,59.47
2022-10-07T07:26:06.143Z,59.40
2022-10-07T07:26:40.683Z,59.00
2022-10-07T07:27:15.452Z,59.14
2022-10-07T07:27:52.462Z,59.56
2022-10-07T07:28:28.673Z,59.94
2022-10-07T07:29:03.113Z,60.92
2022-10-07T07:29:36.097Z,61.22
2022-10-07T07:30:09.448Z,61.95
2022-10-07T07:30:42.915Z,62.69
2022-10-07T07:31:15.928Z,63.31
2022-10-07T07:31:51.254Z,63.62
2022-10-07T07:32:24.628Z,63.66
2022-10-07T07:32:57.957Z,63.43
2022-10-07T07:33:31.007Z,62.96
2022-10-07T07:34:07.491Z,62.34